createdAt,value
2023-02-19T00:00:25.120Z,99185.19
2023-02-19T00:03:27.133Z,99165.16
2023-02-19T00:06:29.446Z,99171.22
2023-02-19T00:09:30.914Z,99168.56
2023-02-19T00:12:32.397Z,99178.16
2023-02-19T00:15:33.880Z,99180.75
2023-02-19T00:18:35.555Z,99175.56
2023-02-19T00:21:36.998Z,99179.06
2023-02-19T00:24:38.502Z,99169.44
2023-02-19T00:27:39.965Z,99179.03
2023-02-19T00:30:41.455Z,99176.47
2023-02-19T00:33:42.963Z,99169.44
2023-02-19T00:36:44.519Z,99172.03
2023-02-19T00:39:45.971Z,99167.72
2023-02-19T00:42:47.426Z,99170.31
2023-02-19T00:45:48.922Z,99164.19
2023-02-19T00:48:50.621Z,99160.72
2023-02-19T00:51:52.413Z,99161.63
2023-02-19T00:54:53.870Z,99180.69
2023-02-19T00:57:55.334Z,99165.94
2023-02-19T01:00:56.894Z,99162.41
2023-02-19T01:03:58.406Z,99155.41
2023-02-19T01:06:59.910Z,99156.31
2023-02-19T01:10:01.405Z,99158.94
2023-02-19T01:13:02.857Z,99149.31
2023-02-19T01:16:14.423Z,99148.47
2023-02-19T01:19:15.897Z,99146.72
2023-02-19T01:22:17.395Z,99146.75
2023-02-19T01:25:18.957Z,99150.22
2023-02-19T01:28:20.415Z,99149.34
2023-02-19T01:31:23.096Z,99141.50
2023-02-19T01:34:24.619Z,99138.88
2023-02-19T01:37:26.068Z,99145.00
2023-02-19T01:40:27.562Z,99147.53
2023-02-19T01:43:29.034Z,99139.66
2023-02-19T01:46:32.610Z,99138.75
2023-02-19T01:49:37.308Z,99134.28
2023-02-19T01:52:38.776Z,99125.50
2023-02-19T01:55:40.225Z,99135.94
2023-02-19T01:58:41.689Z,99138.56
2023-02-19T02:01:43.190Z,99136.75
2023-02-19T02:04:44.665Z,99134.97
2023-02-19T02:08:04.849Z,99138.41
2023-02-19T02:11:06.333Z,99139.28
2023-02-19T02:14:07.779Z,99152.34
2023-02-19T02:17:28.001Z,99154.00
2023-02-19T02:20:54.334Z,99154.97
2023-02-19T02:24:12.990Z,99155.81
2023-02-19T02:27:55.730Z,99132.09
2023-02-19T02:31:02.731Z,99118.03
2023-02-19T02:34:07.202Z,99097.78
2023-02-19T02:37:08.658Z,99081.38
2023-02-19T02:40:10.381Z,99052.53
2023-02-19T02:43:12.222Z,99030.66
2023-02-19T02:46:15.020Z,99015.09
2023-02-19T02:49:20.037Z,98992.44
2023-02-19T02:52:40.012Z,98983.78
2023-02-19T02:55:43.223Z,98968.19
2023-02-19T02:58:44.767Z,98963.63
2023-02-19T03:02:14.097Z,98945.06
2023-02-19T03:05:39.336Z,98940.06
2023-02-19T03:08:43.821Z,98945.91
2023-02-19T03:12:14.986Z,98950.19
2023-02-19T03:15:34.850Z,98925.97
2023-02-19T03:18:54.894Z,98929.50
2023-02-19T03:22:00.931Z,98942.47
2023-02-19T03:25:28.051Z,98943.28
2023-02-19T03:28:49.577Z,98938.09
2023-02-19T03:31:53.733Z,98934.44
2023-02-19T03:35:16.459Z,98921.28
2023-02-19T03:38:20.982Z,98910.81
2023-02-19T03:41:35.609Z,98908.25
2023-02-19T03:44:55.657Z,98903.88
2023-02-19T03:48:35.314Z,98908.31
2023-02-19T03:51:45.033Z,98914.28
2023-02-19T03:54:48.057Z,98895.22
2023-02-19T03:58:01.543Z,98900.31
2023-02-19T04:01:13.640Z,98902.09
2023-02-19T04:04:32.204Z,98902.16
2023-02-19T04:07:35.699Z,98897.75
2023-02-19T04:10:37.114Z,98890.78
2023-02-19T04:13:51.288Z,98887.31
2023-02-19T04:17:01.125Z,98889.97
2023-02-19T04:20:03.905Z,98883.84
2023-02-19T04:23:05.428Z,98895.94
2023-02-19T04:26:07.953Z,98903.63
2023-02-19T04:29:09.266Z,98900.97
2023-02-19T04:32:11.289Z,98904.41
2023-02-19T04:35:12.777Z,98905.25
2023-02-19T04:38:14.767Z,98908.81
2023-02-19T04:41:16.251Z,98915.69
2023-02-19T04:44:17.699Z,98916.50
2023-02-19T04:47:19.151Z,98911.34
2023-02-19T04:50:21.569Z,98920.94
2023-02-19T04:53:22.879Z,98924.34
2023-02-19T04:56:24.371Z,98919.09
2023-02-19T04:59:25.914Z,98937.44
2023-02-19T05:02:27.365Z,98937.53
2023-02-19T05:05:28.803Z,98958.38
2023-02-19T05:08:30.269Z,98941.91
2023-02-19T05:11:31.794Z,98955.63
2023-02-19T05:14:33.242Z,98956.53
2023-02-19T05:17:34.801Z,98951.22
2023-02-19T05:20:36.662Z,98961.78
2023-02-19T05:23:38.222Z,98965.25
2023-02-19T05:26:39.667Z,98960.78
2023-02-19T05:29:41.094Z,98965.25
2023-02-19T05:32:42.597Z,98966.03
2023-02-19T05:35:44.936Z,98969.56
2023-02-19T05:38:46.379Z,98975.50
2023-02-19T05:41:47.864Z,98978.06
2023-02-19T05:44:49.304Z,98978.13
2023-02-19T05:47:50.764Z,98972.16
2023-02-19T05:50:52.234Z,98979.91
2023-02-19T05:53:54.022Z,98988.59
2023-02-19T05:56:55.681Z,98987.72
2023-02-19T05:59:57.158Z,98989.38
2023-02-19T06:02:58.657Z,98984.19
2023-02-19T06:06:00.120Z,98979.06
2023-02-19T06:09:01.578Z,98990.38
2023-02-19T06:12:03.094Z,98993.72
2023-02-19T06:15:05.499Z,99001.50
2023-02-19T06:18:09.248Z,98988.50
2023-02-19T06:21:11.689Z,99005.91
2023-02-19T06:24:13.364Z,99014.53
2023-02-19T06:27:14.947Z,99017.25
2023-02-19T06:30:16.477Z,99016.38
2023-02-19T06:33:17.963Z,99012.94
2023-02-19T06:36:20.215Z,99039.09
2023-02-19T06:39:21.675Z,99048.53
2023-02-19T06:42:23.126Z,99058.16
2023-02-19T06:45:24.563Z,99057.28
2023-02-19T06:48:27.190Z,99071.22
2023-02-19T06:51:29.674Z,99068.63
2023-02-19T06:54:31.473Z,99083.34
2023-02-19T06:57:32.952Z,99096.28
2023-02-19T07:00:34.758Z,99100.69
2023-02-19T07:03:36.254Z,99105.81
2023-02-19T07:06:37.740Z,99114.63
2023-02-19T07:09:39.201Z,99125.91
2023-02-19T07:12:40.742Z,99112.91
2023-02-19T07:15:42.198Z,99110.16
2023-02-19T07:18:43.698Z,99109.22
2023-02-19T07:21:45.170Z,99121.41
2023-02-19T07:24:47.937Z,99133.69
2023-02-19T07:27:49.497Z,99139.63
2023-02-19T07:30:51.069Z,99158.88
2023-02-19T07:33:52.606Z,99167.56
2023-02-19T07:36:54.066Z,99169.25
2023-02-19T07:39:55.531Z,99179.50
2023-02-19T07:42:59.260Z,99174.34
2023-02-19T07:46:05.211Z,99175.13
2023-02-19T07:49:07.190Z,99172.38
2023-02-19T07:52:08.680Z,99197.03
2023-02-19T07:55:11.359Z,99196.19
2023-02-19T07:58:12.805Z,99201.38
2023-02-19T08:01:44.222Z,99199.56
2023-02-19T08:04:47.566Z,99224.91
2023-02-19T08:07:49.024Z,99216.25
2023-02-19T08:11:08.898Z,99217.09
2023-02-19T08:14:10.437Z,99224.00
2023-02-19T08:17:11.963Z,99222.38
2023-02-19T08:20:13.455Z,99234.53
2023-02-19T08:23:15.019Z,99242.28
2023-02-19T08:26:16.486Z,99239.59
2023-02-19T08:29:17.959Z,99237.06
2023-02-19T08:32:19.429Z,99238.94
2023-02-19T08:35:21.000Z,99245.94
2023-02-19T08:38:22.471Z,99259.00
2023-02-19T08:41:23.963Z,99267.75
2023-02-19T08:44:25.452Z,99271.38
2023-02-19T08:47:26.932Z,99262.63
2023-02-19T08:50:28.870Z,99269.41
2023-02-19T08:53:31.265Z,99260.69
2023-02-19T08:56:32.722Z,99258.03
2023-02-19T08:59:34.177Z,99266.97
2023-02-19T09:02:35.920Z,99274.13
2023-02-19T09:05:38.001Z,99277.50
2023-02-19T09:08:39.539Z,99286.19
2023-02-19T09:11:41.028Z,99294.94
2023-02-19T09:14:42.494Z,99300.88
2023-02-19T09:17:43.988Z,99303.41
2023-02-19T09:20:45.482Z,99307.88
2023-02-19T09:23:46.930Z,99313.06
2023-02-19T09:26:52.247Z,99316.50
2023-02-19T09:29:55.017Z,99314.88
2023-02-19T09:32:56.684Z,99310.91
2023-02-19T09:36:01.441Z,99319.56
2023-02-19T09:39:04.474Z,99326.50
2023-02-19T09:42:19.691Z,99329.53
2023-02-19T09:45:25.311Z,99333.38
2023-02-19T09:48:26.846Z,99341.06
2023-02-19T09:51:28.302Z,99348.84
2023-02-19T09:54:30.591Z,99350.44
2023-02-19T09:57:32.818Z,99355.72
2023-02-19T10:00:34.375Z,99348.19
2023-02-19T10:03:41.415Z,99350.06
2023-02-19T10:06:42.907Z,99364.19
2023-02-19T10:09:46.319Z,99359.00
2023-02-19T10:12:50.457Z,99372.88
2023-02-19T10:15:53.904Z,99377.56
2023-02-19T10:18:56.442Z,99387.00
2023-02-19T10:21:58.338Z,99383.34
2023-02-19T10:24:59.789Z,99385.47
2023-02-19T10:28:01.721Z,99390.41
2023-02-19T10:31:05.056Z,99403.44
2023-02-19T10:34:07.558Z,99406.94
2023-02-19T10:37:12.194Z,99419.13
2023-02-19T10:40:26.615Z,99420.59
2023-02-19T10:43:36.992Z,99419.75
2023-02-19T10:46:46.196Z,99429.44
2023-02-19T10:49:48.739Z,99424.16
2023-02-19T10:52:54.643Z,99426.31
2023-02-19T10:56:07.136Z,99449.81
2023-02-19T10:59:21.080Z,99423.22
2023-02-19T11:02:22.779Z,99413.47
2023-02-19T11:05:24.987Z,99409.25
2023-02-19T11:08:26.452Z,99410.53
2023-02-19T11:11:35.735Z,99418.19
2023-02-19T11:14:37.213Z,99415.06
2023-02-19T11:17:38.664Z,99422.81
2023-02-19T11:21:00.118Z,99439.00
2023-02-19T11:24:03.296Z,99444.56
2023-02-19T11:27:05.850Z,99445.78
2023-02-19T11:30:39.325Z,99448.91
2023-02-19T11:33:45.762Z,99452.16
2023-02-19T11:36:47.446Z,99464.56
2023-02-19T11:39:50.117Z,99461.78
2023-02-19T11:43:23.994Z,99460.66
2023-02-19T11:46:43.827Z,99472.16
2023-02-19T11:49:52.331Z,99451.28
2023-02-19T11:53:13.711Z,99461.41
2023-02-19T11:56:35.758Z,99457.91
2023-02-19T11:59:49.471Z,99459.03
2023-02-19T12:03:17.738Z,99459.53
2023-02-19T12:06:28.530Z,99461.06
2023-02-19T12:09:47.667Z,99452.34
2023-02-19T12:12:57.058Z,99457.63
2023-02-19T12:16:01.480Z,99455.66
2023-02-19T12:19:02.805Z,99466.09
2023-02-19T12:22:27.450Z,99450.19
2023-02-19T12:25:37.430Z,99456.25
2023-02-19T12:29:01.547Z,99453.19
2023-02-19T12:32:21.358Z,99467.91
2023-02-19T12:35:31.466Z,99463.75
2023-02-19T12:38:40.113Z,99467.88
2023-02-19T12:41:57.485Z,99477.66
2023-02-19T12:45:01.758Z,99461.59
2023-02-19T12:48:36.061Z,99465.88
2023-02-19T12:51:48.861Z,99466.19
2023-02-19T12:55:02.346Z,99462.25
2023-02-19T12:58:05.021Z,99475.94
2023-02-19T13:01:07.340Z,99462.06
2023-02-19T13:04:08.629Z,99458.34
2023-02-19T13:07:19.702Z,99444.78
2023-02-19T13:10:49.109Z,99466.72
2023-02-19T13:13:59.709Z,99466.06
2023-02-19T13:17:23.399Z,99448.81
2023-02-19T13:20:38.962Z,99457.47
2023-02-19T13:23:59.823Z,99464.22
2023-02-19T13:27:36.876Z,99459.28
2023-02-19T13:30:49.622Z,99449.69
2023-02-19T13:33:58.496Z,99464.09
2023-02-19T13:36:59.957Z,99457.47
2023-02-19T13:40:39.349Z,99455.66
2023-02-19T13:43:42.848Z,99460.84
2023-02-19T13:46:45.321Z,99457.56
2023-02-19T13:49:48.863Z,99466.16
2023-02-19T13:52:51.418Z,99460.06
2023-02-19T13:55:53.096Z,99462.69
2023-02-19T13:59:28.042Z,99470.38
2023-02-19T14:02:33.993Z,99469.69
2023-02-19T14:06:06.360Z,99461.72
2023-02-19T14:09:45.721Z,99450.34
2023-02-19T14:12:47.188Z,99452.88
2023-02-19T14:15:51.812Z,99458.97
2023-02-19T14:18:55.349Z,99464.31
2023-02-19T14:21:56.826Z,99468.47
2023-02-19T14:24:58.250Z,99467.44
2023-02-19T14:28:05.408Z,99469.16
2023-02-19T14:31:19.592Z,99478.53
2023-02-19T14:34:23.510Z,99464.59
2023-02-19T14:37:25.233Z,99468.03
2023-02-19T14:40:39.046Z,99470.69
2023-02-19T14:43:40.519Z,99482.00
2023-02-19T14:47:02.715Z,99472.50
2023-02-19T14:50:08.905Z,99484.50
2023-02-19T14:53:10.367Z,99474.13
2023-02-19T14:56:28.812Z,99472.41
2023-02-19T14:59:30.456Z,99468.28
2023-02-19T15:02:32.110Z,99464.91
2023-02-19T15:05:36.657Z,99470.88
2023-02-19T15:08:41.959Z,99471.63
2023-02-19T15:11:43.433Z,99464.84
2023-02-19T15:14:45.875Z,99466.41
2023-02-19T15:17:47.182Z,99472.50
2023-02-19T15:20:48.673Z,99487.22
2023-02-19T15:23:50.355Z,99480.03
2023-02-19T15:26:54.024Z,99487.22
2023-02-19T15:29:55.536Z,99489.53
2023-02-19T15:32:58.694Z,99498.28
2023-02-19T15:36:01.798Z,99494.81
2023-02-19T15:39:03.577Z,99497.22
2023-02-19T15:42:05.974Z,99505.06
2023-02-19T15:45:26.233Z,99506.97
2023-02-19T15:48:35.372Z,99518.09
2023-02-19T15:51:55.373Z,99523.44
2023-02-19T15:55:21.674Z,99526.97
2023-02-19T15:58:33.617Z,99528.72
2023-02-19T16:01:38.089Z,99532.00
2023-02-19T16:04:40.669Z,99528.38
2023-02-19T16:07:43.786Z,99537.94
2023-02-19T16:11:05.182Z,99543.13
2023-02-19T16:14:39.110Z,99533.19
2023-02-19T16:17:43.699Z,99540.88
2023-02-19T16:20:46.542Z,99530.50
2023-02-19T16:23:49.538Z,99553.19
2023-02-19T16:26:51.098Z,99549.56
2023-02-19T16:29:52.541Z,99558.47
2023-02-19T16:33:28.367Z,99560.28
2023-02-19T16:36:29.798Z,99559.94
2023-02-19T16:39:32.582Z,99562.81
2023-02-19T16:42:58.173Z,99559.25
2023-02-19T16:45:59.665Z,99558.47
2023-02-19T16:49:01.212Z,99548.84
2023-02-19T16:52:05.015Z,99551.16
2023-02-19T16:55:12.552Z,99538.88
2023-02-19T16:58:14.139Z,99522.78
2023-02-19T17:01:15.752Z,99531.25
2023-02-19T17:04:17.277Z,99523.56
2023-02-19T17:07:18.829Z,99540.09
2023-02-19T17:10:25.613Z,99535.81
2023-02-19T17:13:27.088Z,99545.44
2023-02-19T17:16:40.554Z,99553.78
2023-02-19T17:19:42.150Z,99553.03
2023-02-19T17:22:43.908Z,99553.53
2023-02-19T17:25:45.390Z,99551.94
2023-02-19T17:28:47.031Z,99556.28
2023-02-19T17:31:48.638Z,99552.91
2023-02-19T17:34:50.150Z,99543.25
2023-02-19T17:37:53.397Z,99548.25
2023-02-19T17:40:54.980Z,99558.81
2023-02-19T17:43:56.439Z,99563.81
2023-02-19T17:46:57.893Z,99562.09
2023-02-19T17:50:01.144Z,99556.50
2023-02-19T17:53:02.634Z,99546.78
2023-02-19T17:56:04.263Z,99543.34
2023-02-19T17:59:05.718Z,99548.53
2023-02-19T18:02:07.242Z,99543.09
2023-02-19T18:05:08.739Z,99552.69
2023-02-19T18:08:10.197Z,99544.03
2023-02-19T18:11:11.845Z,99547.47
2023-02-19T18:14:13.485Z,99558.19
2023-02-19T18:17:15.028Z,99566.22
2023-02-19T18:20:18.403Z,99576.72
2023-02-19T18:23:20.628Z,99583.53
2023-02-19T18:26:22.140Z,99578.88
2023-02-19T18:29:25.905Z,99585.66
2023-02-19T18:32:27.470Z,99575.19
2023-02-19T18:35:28.928Z,99582.03
2023-02-19T18:38:30.380Z,99567.81
2023-02-19T18:41:31.844Z,99583.84
2023-02-19T18:44:33.305Z,99580.41
2023-02-19T18:47:34.766Z,99586.47
2023-02-19T18:50:36.249Z,99585.31
2023-02-19T18:53:37.723Z,99581.84
2023-02-19T18:56:45.826Z,99575.84
2023-02-19T18:59:47.405Z,99573.19
2023-02-19T19:02:51.102Z,99569.53
2023-02-19T19:05:53.185Z,99576.56
2023-02-19T19:08:54.647Z,99572.56
2023-02-19T19:11:56.091Z,99581.06
2023-02-19T19:14:57.660Z,99580.19
2023-02-19T19:17:59.698Z,99585.31
2023-02-19T19:21:03.393Z,99578.38
2023-02-19T19:24:05.235Z,99586.19
2023-02-19T19:27:06.819Z,99575.50
2023-02-19T19:30:08.972Z,99575.47
2023-02-19T19:33:12.145Z,99578.09
2023-02-19T19:36:16.554Z,99578.47
2023-02-19T19:39:18.013Z,99570.78
2023-02-19T19:42:19.481Z,99575.97
2023-02-19T19:45:21.040Z,99566.31
2023-02-19T19:48:22.585Z,99565.50
2023-02-19T19:51:24.166Z,99567.09
2023-02-19T19:54:25.594Z,99558.97
2023-02-19T19:57:27.064Z,99562.34
2023-02-19T20:00:28.482Z,99563.34
2023-02-19T20:03:30.846Z,99558.16
2023-02-19T20:06:33.829Z,99556.59
2023-02-19T20:09:35.283Z,99558.94
2023-02-19T20:12:36.728Z,99562.50
2023-02-19T20:15:38.257Z,99554.78
2023-02-19T20:18:39.762Z,99562.56
2023-02-19T20:21:44.781Z,99557.41
2023-02-19T20:24:50.486Z,99564.00
2023-02-19T20:27:52.079Z,99559.91
2023-02-19T20:30:53.651Z,99552.78
2023-02-19T20:33:55.423Z,99542.19
2023-02-19T20:36:56.895Z,99546.22
2023-02-19T20:39:58.667Z,99542.91
2023-02-19T20:43:00.975Z,99539.59
2023-02-19T20:46:02.504Z,99534.59
2023-02-19T20:49:03.970Z,99539.59
2023-02-19T20:52:06.334Z,99540.66
2023-02-19T20:55:07.802Z,99537.84
2023-02-19T20:58:09.292Z,99535.34
2023-02-19T21:01:11.726Z,99527.31
2023-02-19T21:04:13.142Z,99524.72
2023-02-19T21:07:14.699Z,99526.44
2023-02-19T21:10:16.225Z,99530.81
2023-02-19T21:13:17.699Z,99532.53
2023-02-19T21:16:19.189Z,99547.94
2023-02-19T21:19:21.633Z,99546.28
2023-02-19T21:22:22.999Z,99546.22
2023-02-19T21:25:24.422Z,99558.22
2023-02-19T21:28:25.902Z,99551.50
2023-02-19T21:31:38.650Z,99549.78
2023-02-19T21:34:40.288Z,99549.91
2023-02-19T21:37:43.258Z,99551.69
2023-02-19T21:40:44.713Z,99544.75
2023-02-19T21:43:46.165Z,99547.41
2023-02-19T21:46:48.028Z,99547.19
2023-02-19T21:49:49.843Z,99544.53
2023-02-19T21:52:51.379Z,99541.84
2023-02-19T21:55:58.695Z,99532.22
2023-02-19T21:59:00.646Z,99536.50
2023-02-19T22:02:02.181Z,99522.59
2023-02-19T22:05:03.869Z,99525.28
2023-02-19T22:08:05.375Z,99518.19
2023-02-19T22:11:06.872Z,99509.59
2023-02-19T22:14:08.391Z,99519.06
2023-02-19T22:17:09.922Z,99518.03
2023-02-19T22:20:11.500Z,99543.47
2023-02-19T22:23:13.000Z,99556.91
2023-02-19T22:26:27.183Z,99611.09
2023-02-19T22:29:28.732Z,99642.09
2023-02-19T22:32:30.310Z,99638.53
2023-02-19T22:35:31.850Z,99616.09
2023-02-19T22:38:33.364Z,99618.19
2023-02-19T22:41:35.065Z,99618.25
2023-02-19T22:44:36.745Z,99608.16
2023-02-19T22:47:39.926Z,99612.28
2023-02-19T22:50:41.471Z,99632.88
2023-02-19T22:53:46.813Z,99636.47
2023-02-19T22:56:48.314Z,99631.06
2023-02-19T22:59:49.773Z,75296.56
2023-02-19T23:02:51.334Z,56896.25
2023-02-19T23:05:52.789Z,56896.25
2023-02-19T23:08:55.048Z,56896.25
2023-02-19T23:12:08.996Z,56896.25
2023-02-19T23:15:11.050Z,56896.25
2023-02-19T23:18:12.577Z,76679.19
2023-02-19T23:21:14.035Z,99648.72
2023-02-19T23:24:15.661Z,65796.56
2023-02-19T23:27:17.146Z,56896.25
2023-02-19T23:30:19.347Z,56896.25
2023-02-19T23:33:20.839Z,56896.25
2023-02-19T23:36:25.007Z,56896.25
2023-02-19T23:39:27.625Z,-20614.91
2023-02-19T23:42:30.257Z,56896.25
2023-02-19T23:45:32.346Z,56896.25
2023-02-19T23:48:33.853Z,56896.25
2023-02-19T23:51:35.351Z,88731.16
2023-02-19T23:54:36.920Z,56896.25
2023-02-19T23:57:38.513Z,45081.09
